createdAt,value
2018-06-02T00:00:19.471Z,69.00
2018-06-02T00:02:46.924Z,68.73
2018-06-02T00:05:14.398Z,66.30
2018-06-02T00:07:41.862Z,68.13
2018-06-02T00:10:09.316Z,67.70
2018-06-02T00:12:36.767Z,70.27
2018-06-02T00:15:04.211Z,68.77
2018-06-02T00:17:31.643Z,66.53
2018-06-02T00:19:59.174Z,62.60
2018-06-02T00:22:26.609Z,64.53
2018-06-02T00:24:54.046Z,67.30
2018-06-02T00:27:21.483Z,70.70
2018-06-02T00:29:48.920Z,76.05
2018-06-02T00:32:17.138Z,64.30
2018-06-02T00:34:44.588Z,73.45
2018-06-02T00:37:12.060Z,72.27
2018-06-02T00:39:39.497Z,71.70
2018-06-02T00:42:06.936Z,71.70
2018-06-02T00:44:34.431Z,68.60
2018-06-02T00:47:01.872Z,69.83
2018-06-02T00:49:29.308Z,72.83
2018-06-02T00:51:57.619Z,73.00
2018-06-02T00:54:36.750Z,73.80
2018-06-02T00:57:04.207Z,73.07
2018-06-02T00:59:31.679Z,69.57
2018-06-02T01:01:59.123Z,74.00
2018-06-02T01:04:26.582Z,71.63
2018-06-02T01:06:54.143Z,71.57
2018-06-02T01:09:21.598Z,70.43
2018-06-02T01:11:49.150Z,73.90
2018-06-02T01:14:16.588Z,73.77
2018-06-02T01:16:44.062Z,73.30
2018-06-02T01:19:11.531Z,72.67
2018-06-02T01:21:38.987Z,67.03
2018-06-02T01:24:06.422Z,69.03
2018-06-02T01:26:33.865Z,70.73
2018-06-02T01:29:02.067Z,67.97
2018-06-02T01:31:29.506Z,65.97
2018-06-02T01:33:57.005Z,68.87
2018-06-02T01:36:24.456Z,71.23
2018-06-02T01:38:51.911Z,68.77
2018-06-02T01:41:19.364Z,70.17
2018-06-02T01:43:46.823Z,67.90
2018-06-02T01:46:14.282Z,65.33
2018-06-02T01:48:41.730Z,67.13
2018-06-02T01:51:09.191Z,64.80
2018-06-02T01:53:36.634Z,66.43
2018-06-02T01:56:04.071Z,62.63
2018-06-02T01:58:31.511Z,68.60
2018-06-02T02:00:59.747Z,68.70
2018-06-02T02:03:27.200Z,65.50
2018-06-02T02:05:54.664Z,56.70
2018-06-02T02:08:22.102Z,60.43
2018-06-02T02:10:49.573Z,62.47
2018-06-02T02:13:17.017Z,65.90
2018-06-02T02:15:44.488Z,58.50
2018-06-02T02:18:11.924Z,63.85
2018-06-02T02:20:39.386Z,62.23
2018-06-02T02:23:06.822Z,59.87
2018-06-02T02:25:35.062Z,61.43
2018-06-02T02:28:02.498Z,54.70
2018-06-02T02:30:29.943Z,60.93
2018-06-02T02:32:57.391Z,58.03
2018-06-02T02:35:25.886Z,58.73
2018-06-02T02:37:53.307Z,62.67
2018-06-02T02:40:20.892Z,60.47
2018-06-02T02:42:48.359Z,55.53
2018-06-02T02:45:15.817Z,61.17
2018-06-02T02:47:43.289Z,58.70
2018-06-02T02:50:10.840Z,55.30
2018-06-02T02:52:38.281Z,56.40
2018-06-02T02:55:05.751Z,50.23
2018-06-02T02:57:33.192Z,48.47
2018-06-02T03:00:00.635Z,46.50
2018-06-02T03:02:28.071Z,47.00
2018-06-02T03:04:56.273Z,43.13
2018-06-02T03:07:23.703Z,44.03
2018-06-02T03:09:51.989Z,43.97
2018-06-02T03:12:19.495Z,49.85
2018-06-02T03:14:46.932Z,42.10
2018-06-02T03:17:14.379Z,51.25
2018-06-02T03:19:41.860Z,47.07
2018-06-02T03:22:09.411Z,40.70
2018-06-02T03:24:36.880Z,43.50
2018-06-02T03:27:04.317Z,43.03
2018-06-02T03:29:31.783Z,45.47
2018-06-02T03:31:59.243Z,41.10
2018-06-02T03:34:26.699Z,47.00
2018-06-02T03:36:54.155Z,41.23
2018-06-02T03:39:21.628Z,47.10
2018-06-02T03:41:49.175Z,48.30
2018-06-02T03:44:16.636Z,51.20
2018-06-02T03:46:44.095Z,49.33
2018-06-02T03:49:11.554Z,49.00
2018-06-02T03:51:38.987Z,48.40
2018-06-02T03:54:06.472Z,50.27
2018-06-02T03:56:33.915Z,55.28
2018-06-02T03:59:01.355Z,53.37
2018-06-02T04:01:28.843Z,59.23
2018-06-02T04:03:56.308Z,58.03
2018-06-02T04:06:23.787Z,55.03
2018-06-02T04:08:51.220Z,51.47
2018-06-02T04:11:18.777Z,55.77
2018-06-02T04:13:46.336Z,51.43
2018-06-02T04:16:15.402Z,57.83
2018-06-02T04:18:42.840Z,56.20
2018-06-02T04:21:11.055Z,62.43
2018-06-02T04:23:38.497Z,61.53
2018-06-02T04:26:06.908Z,59.97
2018-06-02T04:28:34.359Z,59.07
2018-06-02T04:31:01.815Z,64.87
2018-06-02T04:33:29.255Z,63.57
2018-06-02T04:35:56.702Z,62.23
2018-06-02T04:38:24.195Z,66.07
2018-06-02T04:40:51.639Z,64.83
2018-06-02T04:43:19.102Z,63.07
2018-06-02T04:45:46.660Z,59.43
2018-06-02T04:48:14.108Z,61.13
2018-06-02T04:50:41.547Z,64.77
2018-06-02T04:53:08.980Z,69.78
2018-06-02T04:55:37.203Z,67.77
2018-06-02T04:58:04.655Z,73.57
2018-06-02T05:00:32.115Z,60.17
2018-06-02T05:02:59.578Z,62.97
2018-06-02T05:05:27.189Z,63.13
2018-06-02T05:07:55.389Z,65.13
2018-06-02T05:10:22.827Z,66.07
2018-06-02T05:12:51.052Z,62.20
2018-06-02T05:15:18.506Z,57.90
2018-06-02T05:17:45.947Z,61.17
2018-06-02T05:20:13.391Z,58.20
2018-06-02T05:22:40.826Z,55.80
2018-06-02T05:25:09.036Z,53.60
2018-06-02T05:27:36.607Z,52.30
2018-06-02T05:30:04.054Z,53.90
2018-06-02T05:32:31.497Z,51.07
2018-06-02T05:34:58.975Z,54.60
2018-06-02T05:37:26.412Z,57.53
2018-06-02T05:39:53.863Z,53.20
2018-06-02T05:42:21.340Z,58.47
2018-06-02T05:44:48.770Z,60.50
2018-06-02T05:47:16.216Z,61.40
2018-06-02T05:49:44.425Z,64.07
2018-06-02T05:52:11.881Z,64.83
2018-06-02T05:54:39.339Z,62.07
2018-06-02T05:57:06.762Z,67.70
2018-06-02T05:59:34.982Z,60.43
2018-06-02T06:02:02.439Z,61.97
2018-06-02T06:04:29.899Z,62.43
2018-06-02T06:06:57.346Z,54.03
2018-06-02T06:09:24.815Z,53.03
2018-06-02T06:11:52.271Z,54.67
2018-06-02T06:14:19.727Z,54.97
2018-06-02T06:16:47.294Z,49.90
2018-06-02T06:19:14.758Z,48.77
2018-06-02T06:21:42.199Z,46.50
2018-06-02T06:24:09.635Z,45.77
2018-06-02T06:26:37.081Z,44.33
2018-06-02T06:29:05.295Z,42.57
2018-06-02T06:31:32.727Z,42.20
2018-06-02T06:34:00.215Z,39.87
2018-06-02T06:36:27.663Z,41.03
2018-06-02T06:38:55.099Z,41.67
2018-06-02T06:41:22.546Z,36.67
2018-06-02T06:43:50.746Z,39.20
2018-06-02T06:46:18.211Z,44.00
2018-06-02T06:48:45.670Z,40.73
2018-06-02T06:51:13.103Z,47.30
2018-06-02T06:53:40.555Z,47.40
2018-06-02T06:56:07.995Z,46.75
2018-06-02T06:58:36.316Z,46.37
2018-06-02T07:01:03.735Z,49.03
2018-06-02T07:03:31.939Z,43.30
2018-06-02T07:05:59.408Z,39.37
2018-06-02T07:08:26.843Z,39.30
2018-06-02T07:10:54.295Z,38.63
2018-06-02T07:13:21.780Z,40.00
2018-06-02T07:15:49.328Z,39.17
2018-06-02T07:18:16.807Z,36.50
2018-06-02T07:20:44.364Z,39.73
2018-06-02T07:23:11.815Z,40.50
2018-06-02T07:25:39.256Z,41.40
2018-06-02T07:28:06.711Z,42.47
2018-06-02T07:30:34.146Z,40.20
2018-06-02T07:33:02.369Z,40.40
2018-06-02T07:35:29.839Z,43.70
2018-06-02T07:37:57.272Z,41.70
2018-06-02T07:40:24.720Z,44.17
2018-06-02T07:42:52.168Z,44.93
2018-06-02T07:45:19.613Z,46.97
2018-06-02T07:47:47.976Z,50.70
2018-06-02T07:50:16.191Z,54.20
2018-06-02T07:52:43.658Z,54.07
2018-06-02T07:55:11.115Z,56.20
2018-06-02T07:57:38.560Z,60.05
2018-06-02T08:00:06.003Z,57.20
2018-06-02T08:02:33.495Z,62.30
2018-06-02T08:05:00.943Z,58.47
2018-06-02T08:07:28.496Z,61.67
2018-06-02T08:09:55.978Z,63.77
2018-06-02T08:12:23.423Z,67.10
2018-06-02T08:14:50.878Z,71.17
2018-06-02T08:17:18.447Z,77.23
2018-06-02T08:19:45.895Z,73.47
2018-06-02T08:22:13.331Z,64.37
2018-06-02T08:24:40.775Z,61.03
2018-06-02T08:27:08.223Z,57.10
2018-06-02T08:29:36.546Z,54.07
2018-06-02T08:32:03.981Z,55.00
2018-06-02T08:34:31.435Z,58.73
2018-06-02T08:36:58.877Z,54.63
2018-06-02T08:39:27.090Z,54.53
2018-06-02T08:41:54.534Z,53.23
2018-06-02T08:44:22.016Z,55.00
2018-06-02T08:46:49.458Z,49.80
2018-06-02T08:49:16.915Z,47.23
2018-06-02T08:51:44.375Z,47.43
2018-06-02T08:54:11.831Z,43.20
2018-06-02T08:56:39.291Z,37.67
2018-06-02T08:59:06.736Z,36.67
2018-06-02T09:01:34.184Z,35.20
2018-06-02T09:04:01.685Z,34.07
2018-06-02T09:06:29.165Z,35.70
2018-06-02T09:08:56.561Z,38.55
2018-06-02T09:11:24.131Z,32.60
2018-06-02T09:13:51.604Z,31.90
2018-06-02T09:16:19.051Z,32.30
2018-06-02T09:18:46.511Z,33.47
2018-06-02T09:21:13.945Z,32.53
2018-06-02T09:23:41.395Z,32.33
2018-06-02T09:26:09.623Z,31.70
2018-06-02T09:28:37.047Z,32.37
2018-06-02T09:31:04.516Z,32.77
2018-06-02T09:33:31.944Z,32.77
2018-06-02T09:35:59.379Z,33.87
2018-06-02T09:38:27.611Z,33.37
2018-06-02T09:40:55.061Z,31.73
2018-06-02T09:43:22.579Z,33.77
2018-06-02T09:45:50.069Z,31.23
2018-06-02T09:48:17.505Z,32.80
2018-06-02T09:50:44.936Z,32.50
2018-06-02T09:53:12.383Z,32.17
2018-06-02T09:55:39.830Z,28.83
2018-06-02T09:58:07.273Z,33.10
2018-06-02T10:00:36.567Z,30.90
2018-06-02T10:03:04.008Z,32.75
2018-06-02T10:05:31.487Z,31.08
2018-06-02T10:07:58.931Z,28.97
2018-06-02T10:10:26.452Z,29.55
2018-06-02T10:12:53.946Z,29.10
2018-06-02T10:15:21.411Z,29.20
2018-06-02T10:17:48.854Z,30.73
2018-06-02T10:20:16.327Z,28.90
2018-06-02T10:22:43.768Z,28.97
2018-06-02T10:25:11.243Z,27.05
2018-06-02T10:27:38.695Z,27.53
2018-06-02T10:30:06.131Z,27.83
2018-06-02T10:32:33.591Z,28.50
2018-06-02T10:35:01.057Z,28.40
2018-06-02T10:37:28.493Z,27.90
2018-06-02T10:39:55.973Z,26.97
2018-06-02T10:42:23.398Z,27.70
2018-06-02T10:44:51.607Z,29.23
2018-06-02T10:47:19.073Z,27.93
2018-06-02T10:49:46.518Z,25.85
2018-06-02T10:52:13.981Z,28.20
2018-06-02T10:54:41.536Z,28.48
2018-06-02T10:57:09.015Z,27.83
2018-06-02T10:59:37.499Z,28.67
2018-06-02T11:02:05.047Z,30.85
2018-06-02T11:04:32.515Z,33.30
2018-06-02T11:06:59.948Z,30.63
2018-06-02T11:09:27.459Z,27.67
2018-06-02T11:11:54.909Z,27.67
2018-06-02T11:14:22.356Z,26.83
2018-06-02T11:16:49.881Z,26.97
2018-06-02T11:19:17.294Z,27.15
2018-06-02T11:21:45.507Z,27.93
2018-06-02T11:24:12.976Z,27.90
2018-06-02T11:26:40.442Z,29.12
2018-06-02T11:29:07.876Z,30.15
2018-06-02T11:31:35.314Z,32.72
2018-06-02T11:34:02.829Z,35.88
2018-06-02T11:36:30.255Z,36.35
2018-06-02T11:38:57.696Z,37.40
2018-06-02T11:41:25.149Z,34.72
2018-06-02T11:43:52.608Z,36.88
2018-06-02T11:46:20.827Z,38.47
2018-06-02T11:48:48.291Z,39.00
2018-06-02T11:51:15.833Z,38.47
2018-06-02T11:53:43.280Z,39.00
2018-06-02T11:56:10.735Z,42.10
2018-06-02T11:58:38.192Z,38.60
2018-06-02T12:01:05.695Z,39.10
2018-06-02T12:03:33.218Z,38.60
2018-06-02T12:06:00.687Z,38.67
2018-06-02T12:08:28.131Z,35.00
2018-06-02T12:10:55.589Z,32.83
2018-06-02T12:13:23.094Z,36.63
2018-06-02T12:15:50.518Z,30.58
2018-06-02T12:18:17.958Z,29.25
2018-06-02T12:20:45.408Z,29.52
2018-06-02T12:23:12.863Z,25.92
2018-06-02T12:25:40.299Z,26.20
2018-06-02T12:28:08.517Z,25.30
2018-06-02T12:30:35.996Z,25.40
2018-06-02T12:33:03.428Z,23.97
2018-06-02T12:35:30.883Z,25.02
2018-06-02T12:37:58.331Z,23.30
2018-06-02T12:40:25.772Z,23.85
2018-06-02T12:42:53.206Z,24.45
2018-06-02T12:45:21.523Z,22.70
2018-06-02T12:47:48.978Z,23.83
2018-06-02T12:50:16.435Z,22.03
2018-06-02T12:52:43.851Z,22.55
2018-06-02T12:55:12.095Z,23.67
2018-06-02T12:57:39.535Z,22.65
2018-06-02T13:00:07.012Z,24.55
2018-06-02T13:02:34.448Z,23.55
2018-06-02T13:05:01.934Z,24.77
2018-06-02T13:07:29.427Z,23.52
2018-06-02T13:09:57.667Z,24.80
2018-06-02T13:12:25.116Z,25.08
2018-06-02T13:14:52.563Z,25.58
2018-06-02T13:17:20.044Z,25.50
2018-06-02T13:19:47.478Z,25.67
2018-06-02T13:22:15.022Z,25.90
2018-06-02T13:24:42.491Z,26.20
2018-06-02T13:27:10.038Z,27.42
2018-06-02T13:29:37.463Z,27.80
2018-06-02T13:32:05.676Z,27.00
2018-06-02T13:34:33.133Z,26.30
2018-06-02T13:37:00.567Z,28.60
2018-06-02T13:39:28.011Z,29.30
2018-06-02T13:41:56.213Z,30.55
2018-06-02T13:44:23.712Z,32.40
2018-06-02T13:46:51.146Z,31.67
2018-06-02T13:49:18.608Z,32.93
2018-06-02T13:51:46.042Z,33.65
2018-06-02T13:54:13.504Z,33.67
2018-06-02T13:56:40.951Z,35.47
2018-06-02T13:59:08.383Z,33.72
2018-06-02T14:01:36.613Z,35.50
2018-06-02T14:04:04.055Z,30.10
2018-06-02T14:06:31.496Z,30.42
2018-06-02T14:08:58.931Z,31.15
2018-06-02T14:11:27.140Z,32.08
2018-06-02T14:13:54.628Z,32.85
2018-06-02T14:16:22.036Z,34.00
2018-06-02T14:18:49.535Z,35.05
2018-06-02T14:21:17.694Z,35.15
2018-06-02T14:23:45.147Z,35.65
2018-06-02T14:26:12.622Z,37.83
2018-06-02T14:28:40.056Z,37.20
2018-06-02T14:31:07.509Z,34.45
2018-06-02T14:33:34.947Z,34.65
2018-06-02T14:36:03.257Z,33.75
2018-06-02T14:38:30.709Z,34.08
2018-06-02T14:40:58.254Z,34.90
2018-06-02T14:43:25.724Z,32.53
2018-06-02T14:45:53.183Z,30.83
2018-06-02T14:48:20.680Z,29.95
2018-06-02T14:50:48.139Z,28.30
2018-06-02T14:53:15.580Z,28.58
2018-06-02T14:55:43.024Z,26.58
2018-06-02T14:58:10.466Z,28.87
2018-06-02T15:00:37.927Z,26.85
2018-06-02T15:03:05.387Z,27.02
2018-06-02T15:05:32.836Z,25.80
2018-06-02T15:08:00.295Z,23.48
2018-06-02T15:10:27.738Z,22.75
2018-06-02T15:12:55.228Z,21.92
2018-06-02T15:15:22.671Z,22.85
2018-06-02T15:17:50.270Z,21.20
2018-06-02T15:20:17.683Z,21.67
2018-06-02T15:22:45.137Z,22.45
2018-06-02T15:25:12.583Z,21.33
2018-06-02T15:27:40.019Z,24.70
2018-06-02T15:30:07.473Z,23.58
2018-06-02T15:32:34.935Z,21.17
2018-06-02T15:35:02.392Z,22.50
2018-06-02T15:37:29.844Z,21.25
2018-06-02T15:39:57.280Z,20.92
2018-06-02T15:42:24.710Z,22.35
2018-06-02T15:44:52.935Z,19.87
2018-06-02T15:47:20.399Z,23.12
2018-06-02T15:49:47.851Z,21.85
2018-06-02T15:52:15.288Z,22.40
2018-06-02T15:54:42.768Z,20.92
2018-06-02T15:57:10.228Z,19.20
2018-06-02T15:59:37.777Z,18.45
2018-06-02T16:02:05.963Z,20.80
2018-06-02T16:04:33.419Z,17.83
2018-06-02T16:07:00.971Z,18.52
2018-06-02T16:09:28.434Z,18.73
2018-06-02T16:11:55.888Z,20.42
2018-06-02T16:14:23.335Z,21.05
2018-06-02T16:16:50.787Z,21.15
2018-06-02T16:19:18.223Z,22.58
2018-06-02T16:21:45.713Z,21.95
2018-06-02T16:24:13.150Z,22.55
2018-06-02T16:26:40.587Z,21.52
2018-06-02T16:29:08.813Z,22.08
2018-06-02T16:31:36.256Z,23.70
2018-06-02T16:34:03.739Z,23.23
2018-06-02T16:36:31.289Z,23.33
2018-06-02T16:38:58.739Z,24.50
2018-06-02T16:41:26.193Z,26.35
2018-06-02T16:43:53.619Z,26.95
2018-06-02T16:46:21.119Z,23.75
2018-06-02T16:48:48.559Z,25.50
2018-06-02T16:51:16.035Z,23.02
2018-06-02T16:53:43.583Z,24.90
2018-06-02T16:56:11.025Z,25.85
2018-06-02T16:58:38.499Z,26.52
2018-06-02T17:01:05.974Z,27.87
2018-06-02T17:03:33.443Z,25.52
2018-06-02T17:06:00.879Z,27.50
2018-06-02T17:08:28.319Z,28.17
2018-06-02T17:10:55.755Z,31.75
2018-06-02T17:13:23.199Z,34.75
2018-06-02T17:15:51.480Z,34.65
2018-06-02T17:18:19.708Z,34.13
2018-06-02T17:20:47.159Z,35.55
2018-06-02T17:23:14.609Z,35.17
2018-06-02T17:25:42.159Z,35.33
2018-06-02T17:28:09.591Z,36.63
2018-06-02T17:30:37.083Z,37.42
2018-06-02T17:33:04.545Z,39.10
2018-06-02T17:35:32.010Z,37.58
2018-06-02T17:37:59.559Z,38.58
2018-06-02T17:40:27.011Z,37.03
2018-06-02T17:42:54.474Z,36.45
2018-06-02T17:45:21.940Z,39.40
2018-06-02T17:47:49.496Z,37.70
2018-06-02T17:50:16.949Z,36.58
2018-06-02T17:52:44.400Z,39.53
2018-06-02T17:55:11.835Z,38.97
2018-06-02T17:57:39.348Z,40.30
2018-06-02T18:00:06.789Z,39.50
2018-06-02T18:02:34.348Z,40.60
2018-06-02T18:05:01.787Z,41.90
2018-06-02T18:07:29.264Z,38.70
2018-06-02T18:09:56.712Z,41.27
2018-06-02T18:12:24.168Z,44.93
2018-06-02T18:14:51.646Z,42.03
2018-06-02T18:17:19.079Z,40.57
2018-06-02T18:19:46.499Z,43.10
2018-06-02T18:22:14.707Z,43.07
2018-06-02T18:24:42.160Z,42.30
2018-06-02T18:27:09.617Z,47.75
2018-06-02T18:29:37.079Z,44.07
2018-06-02T18:32:04.533Z,47.97
2018-06-02T18:34:31.992Z,44.10
2018-06-02T18:36:59.475Z,44.33
2018-06-02T18:39:27.023Z,44.73
2018-06-02T18:41:54.575Z,42.87
2018-06-02T18:44:22.011Z,42.93
2018-06-02T18:46:49.455Z,44.13
2018-06-02T18:49:16.923Z,43.03
2018-06-02T18:51:44.411Z,43.93
2018-06-02T18:54:11.864Z,44.77
2018-06-02T18:56:39.323Z,44.87
2018-06-02T18:59:06.771Z,45.50
2018-06-02T19:01:34.231Z,44.57
2018-06-02T19:04:01.679Z,47.10
2018-06-02T19:06:29.153Z,47.40
2018-06-02T19:08:56.588Z,45.77
2018-06-02T19:11:24.071Z,46.87
2018-06-02T19:13:51.507Z,47.40
2018-06-02T19:16:19.009Z,47.63
2018-06-02T19:18:46.447Z,47.90
2018-06-02T19:21:13.880Z,48.60
2018-06-02T19:23:41.338Z,48.70
2018-06-02T19:26:08.771Z,48.83
2018-06-02T19:28:36.204Z,48.33
2018-06-02T19:31:03.747Z,48.10
2018-06-02T19:33:31.287Z,46.77
2018-06-02T19:35:58.737Z,48.60
2018-06-02T19:38:26.202Z,49.53
2018-06-02T19:40:53.666Z,49.07
2018-06-02T19:43:21.884Z,50.10
2018-06-02T19:45:49.343Z,50.17
2018-06-02T19:48:16.845Z,50.43
2018-06-02T19:50:44.259Z,54.93
2018-06-02T19:53:11.707Z,100.70
2018-06-02T19:55:39.276Z,69.97
2018-06-02T19:58:06.723Z,52.63
2018-06-02T20:00:34.170Z,51.77
2018-06-02T20:03:01.626Z,50.43
2018-06-02T20:05:29.102Z,52.83
2018-06-02T20:07:56.584Z,51.67
2018-06-02T20:10:24.790Z,51.13
2018-06-02T20:12:52.232Z,54.65
2018-06-02T20:15:19.679Z,53.87
2018-06-02T20:17:47.128Z,58.90
2018-06-02T20:20:14.622Z,51.77
2018-06-02T20:22:42.262Z,51.73
2018-06-02T20:25:09.675Z,51.67
2018-06-02T20:27:37.886Z,53.33
2018-06-02T20:30:05.323Z,54.10
2018-06-02T20:32:32.817Z,53.47
2018-06-02T20:35:00.278Z,51.97
2018-06-02T20:37:27.741Z,53.63
2018-06-02T20:39:55.171Z,54.97
2018-06-02T20:42:22.637Z,53.87
2018-06-02T20:44:50.078Z,51.93
2018-06-02T20:47:17.574Z,54.50
2018-06-02T20:49:45.032Z,54.10
2018-06-02T20:52:12.471Z,54.27
2018-06-02T20:54:39.931Z,52.47
2018-06-02T20:57:07.384Z,55.60
2018-06-02T20:59:34.863Z,54.83
2018-06-02T21:02:02.311Z,55.13
2018-06-02T21:04:29.842Z,57.63
2018-06-02T21:06:57.334Z,61.55
2018-06-02T21:09:24.862Z,59.13
2018-06-02T21:11:52.287Z,63.67
2018-06-02T21:14:19.765Z,56.87
2018-06-02T21:16:47.986Z,57.07
2018-06-02T21:19:15.425Z,57.07
2018-06-02T21:21:42.862Z,58.83
2018-06-02T21:24:10.350Z,57.87
2018-06-02T21:26:37.805Z,60.47
2018-06-02T21:29:05.254Z,63.33
2018-06-02T21:31:32.835Z,63.23
2018-06-02T21:34:00.289Z,60.53
2018-06-02T21:36:27.756Z,58.03
2018-06-02T21:38:55.203Z,62.70
2018-06-02T21:41:22.749Z,59.30
2018-06-02T21:43:50.179Z,61.93
2018-06-02T21:46:18.384Z,64.80
2018-06-02T21:48:45.828Z,62.07
2018-06-02T21:51:13.299Z,58.90
2018-06-02T21:53:40.727Z,59.30
2018-06-02T21:56:09.039Z,59.53
2018-06-02T21:58:36.486Z,60.97
2018-06-02T22:01:03.918Z,56.77
2018-06-02T22:03:32.136Z,64.53
2018-06-02T22:05:59.680Z,61.13
2018-06-02T22:08:27.148Z,57.30
2018-06-02T22:10:54.614Z,60.07
2018-06-02T22:13:22.059Z,59.93
2018-06-02T22:15:49.529Z,58.80
2018-06-02T22:18:16.955Z,59.93
2018-06-02T22:20:44.443Z,59.43
2018-06-02T22:23:11.894Z,58.77
2018-06-02T22:25:39.339Z,56.40
2018-06-02T22:28:07.023Z,55.50
2018-06-02T22:30:34.559Z,54.83
2018-06-02T22:33:01.991Z,54.60
2018-06-02T22:35:29.431Z,54.33
2018-06-02T22:37:56.877Z,57.73
2018-06-02T22:40:25.099Z,56.10
2018-06-02T22:42:52.579Z,55.53
2018-06-02T22:45:20.053Z,55.87
2018-06-02T22:47:47.487Z,56.03
2018-06-02T22:50:14.927Z,53.80
2018-06-02T22:52:42.497Z,54.57
2018-06-02T22:55:09.943Z,59.72
2018-06-02T22:57:37.391Z,55.07
2018-06-02T23:00:04.859Z,51.03
2018-06-02T23:02:32.349Z,55.07
2018-06-02T23:04:59.811Z,54.97
2018-06-02T23:07:27.230Z,55.03
2018-06-02T23:09:54.783Z,53.63
2018-06-02T23:12:22.213Z,56.10
2018-06-02T23:14:49.643Z,52.53
2018-06-02T23:17:17.094Z,53.87
2018-06-02T23:19:44.536Z,53.80
2018-06-02T23:22:33.515Z,51.87
2018-06-02T23:25:01.217Z,52.63
2018-06-02T23:27:29.475Z,51.40
2018-06-02T23:29:57.699Z,52.27
2018-06-02T23:32:26.139Z,51.90
2018-06-02T23:34:53.650Z,49.63
2018-06-02T23:37:21.098Z,52.07
2018-06-02T23:39:48.547Z,51.77
2018-06-02T23:42:16.011Z,56.47
2018-06-02T23:44:43.466Z,53.30
2018-06-02T23:47:11.013Z,57.00
2018-06-02T23:49:38.484Z,52.97
2018-06-02T23:52:05.943Z,52.20
2018-06-02T23:54:33.401Z,50.87
2018-06-02T23:57:00.839Z,51.33
2018-06-02T23:59:28.402Z,49.40
